sensor_id;sensor_type;location;lat;lon;timestamp;P1;durP1;ratioP1;P2;durP2;ratioP2
51034;SDS011;37062;52.546;13.230;2024-01-11T00:00:04;22.40;;;12.73;;
51034;SDS011;37062;52.546;13.230;2024-01-11T00:02:33;24.93;;;13.40;;
51034;SDS011;37062;52.546;13.230;2024-01-11T00:05:01;24.13;;;13.30;;
51034;SDS011;37062;52.546;13.230;2024-01-11T00:07:30;27.50;;;14.03;;
51034;SDS011;37062;52.546;13.230;2024-01-11T00:09:58;31.20;;;14.70;;
51034;SDS011;37062;52.546;13.230;2024-01-11T00:12:28;30.63;;;14.80;;
51034;SDS011;37062;52.546;13.230;2024-01-11T00:14:57;31.27;;;13.90;;
51034;SDS011;37062;52.546;13.230;2024-01-11T00:17:26;26.73;;;14.17;;
51034;SDS011;37062;52.546;13.230;2024-01-11T00:19:54;26.13;;;13.03;;
51034;SDS011;37062;52.546;13.230;2024-01-11T00:22:23;24.77;;;12.03;;
51034;SDS011;37062;52.546;13.230;2024-01-11T00:24:51;20.00;;;10.50;;
51034;SDS011;37062;52.546;13.230;2024-01-11T00:27:19;20.23;;;9.73;;
51034;SDS011;37062;52.546;13.230;2024-01-11T00:29:47;18.70;;;9.27;;
51034;SDS011;37062;52.546;13.230;2024-01-11T00:32:17;16.07;;;8.73;;
51034;SDS011;37062;52.546;13.230;2024-01-11T00:34:47;18.13;;;8.53;;
51034;SDS011;37062;52.546;13.230;2024-01-11T00:37:16;19.93;;;8.77;;
51034;SDS011;37062;52.546;13.230;2024-01-11T00:39:44;20.20;;;9.10;;
51034;SDS011;37062;52.546;13.230;2024-01-11T00:42:14;17.80;;;9.07;;
51034;SDS011;37062;52.546;13.230;2024-01-11T00:44:42;18.63;;;9.20;;
51034;SDS011;37062;52.546;13.230;2024-01-11T00:47:11;17.87;;;9.17;;
51034;SDS011;37062;52.546;13.230;2024-01-11T00:49:41;16.97;;;9.73;;
51034;SDS011;37062;52.546;13.230;2024-01-11T00:52:09;17.30;;;9.80;;
51034;SDS011;37062;52.546;13.230;2024-01-11T00:54:40;19.60;;;9.43;;
51034;SDS011;37062;52.546;13.230;2024-01-11T00:57:08;19.70;;;10.43;;
51034;SDS011;37062;52.546;13.230;2024-01-11T00:59:36;18.07;;;9.60;;
51034;SDS011;37062;52.546;13.230;2024-01-11T01:02:04;19.20;;;9.47;;
51034;SDS011;37062;52.546;13.230;2024-01-11T01:04:33;15.47;;;8.93;;
51034;SDS011;37062;52.546;13.230;2024-01-11T01:07:06;16.77;;;9.07;;
51034;SDS011;37062;52.546;13.230;2024-01-11T01:09:34;17.67;;;9.07;;
51034;SDS011;37062;52.546;13.230;2024-01-11T01:12:02;18.27;;;9.80;;
51034;SDS011;37062;52.546;13.230;2024-01-11T01:14:31;17.57;;;9.63;;
51034;SDS011;37062;52.546;13.230;2024-01-11T01:17:00;16.37;;;8.63;;
51034;SDS011;37062;52.546;13.230;2024-01-11T01:19:28;16.47;;;8.70;;
51034;SDS011;37062;52.546;13.230;2024-01-11T01:21:56;18.77;;;9.30;;
51034;SDS011;37062;52.546;13.230;2024-01-11T01:24:26;17.47;;;9.53;;
51034;SDS011;37062;52.546;13.230;2024-01-11T01:26:54;16.20;;;8.60;;
51034;SDS011;37062;52.546;13.230;2024-01-11T01:29:22;15.73;;;8.80;;
51034;SDS011;37062;52.546;13.230;2024-01-11T01:31:51;17.73;;;9.80;;
51034;SDS011;37062;52.546;13.230;2024-01-11T01:34:19;17.93;;;9.63;;
51034;SDS011;37062;52.546;13.230;2024-01-11T01:36:48;16.60;;;8.53;;
51034;SDS011;37062;52.546;13.230;2024-01-11T01:39:16;19.43;;;8.57;;
51034;SDS011;37062;52.546;13.230;2024-01-11T01:41:46;18.83;;;9.27;;
51034;SDS011;37062;52.546;13.230;2024-01-11T01:44:14;14.23;;;7.77;;
51034;SDS011;37062;52.546;13.230;2024-01-11T01:46:42;16.43;;;8.27;;
51034;SDS011;37062;52.546;13.230;2024-01-11T01:49:11;15.57;;;8.77;;
51034;SDS011;37062;52.546;13.230;2024-01-11T01:51:41;18.60;;;8.93;;
51034;SDS011;37062;52.546;13.230;2024-01-11T01:54:11;16.07;;;7.90;;
51034;SDS011;37062;52.546;13.230;2024-01-11T01:56:40;16.17;;;8.67;;
51034;SDS011;37062;52.546;13.230;2024-01-11T01:59:09;17.37;;;7.93;;
51034;SDS011;37062;52.546;13.230;2024-01-11T02:01:40;14.90;;;7.90;;
51034;SDS011;37062;52.546;13.230;2024-01-11T02:04:08;20.27;;;9.70;;
51034;SDS011;37062;52.546;13.230;2024-01-11T02:06:40;18.60;;;8.40;;
51034;SDS011;37062;52.546;13.230;2024-01-11T02:09:12;17.93;;;8.27;;
51034;SDS011;37062;52.546;13.230;2024-01-11T02:11:41;15.13;;;7.50;;
51034;SDS011;37062;52.546;13.230;2024-01-11T02:14:11;23.50;;;7.93;;
51034;SDS011;37062;52.546;13.230;2024-01-11T02:16:39;23.97;;;7.60;;
51034;SDS011;37062;52.546;13.230;2024-01-11T02:19:08;38.27;;;8.43;;
51034;SDS011;37062;52.546;13.230;2024-01-11T02:21:40;17.80;;;8.63;;
51034;SDS011;37062;52.546;13.230;2024-01-11T02:24:11;35.70;;;8.57;;
51034;SDS011;37062;52.546;13.230;2024-01-11T02:29:27;19.13;;;8.47;;
51034;SDS011;37062;52.546;13.230;2024-01-11T02:31:56;17.33;;;7.90;;
51034;SDS011;37062;52.546;13.230;2024-01-11T02:34:26;25.23;;;8.53;;
51034;SDS011;37062;52.546;13.230;2024-01-11T02:36:56;21.50;;;8.83;;
51034;SDS011;37062;52.546;13.230;2024-01-11T02:39:26;30.80;;;10.10;;
51034;SDS011;37062;52.546;13.230;2024-01-11T02:41:55;16.83;;;8.10;;
51034;SDS011;37062;52.546;13.230;2024-01-11T02:44:24;16.67;;;8.60;;
51034;SDS011;37062;52.546;13.230;2024-01-11T02:46:54;15.83;;;7.63;;
51034;SDS011;37062;52.546;13.230;2024-01-11T02:49:23;17.83;;;8.53;;
51034;SDS011;37062;52.546;13.230;2024-01-11T02:51:51;15.43;;;7.93;;
51034;SDS011;37062;52.546;13.230;2024-01-11T02:54:19;17.27;;;8.00;;
51034;SDS011;37062;52.546;13.230;2024-01-11T02:56:49;17.43;;;7.80;;
51034;SDS011;37062;52.546;13.230;2024-01-11T02:59:17;17.03;;;7.63;;
51034;SDS011;37062;52.546;13.230;2024-01-11T03:01:45;16.07;;;7.43;;
51034;SDS011;37062;52.546;13.230;2024-01-11T03:04:14;18.10;;;8.07;;
51034;SDS011;37062;52.546;13.230;2024-01-11T03:06:43;17.93;;;8.00;;
51034;SDS011;37062;52.546;13.230;2024-01-11T03:09:13;16.23;;;8.20;;
51034;SDS011;37062;52.546;13.230;2024-01-11T03:11:42;16.17;;;7.90;;
51034;SDS011;37062;52.546;13.230;2024-01-11T03:14:14;17.03;;;7.77;;
51034;SDS011;37062;52.546;13.230;2024-01-11T03:16:42;15.83;;;7.87;;
51034;SDS011;37062;52.546;13.230;2024-01-11T03:19:13;15.70;;;7.47;;
51034;SDS011;37062;52.546;13.230;2024-01-11T03:21:43;14.10;;;7.10;;
51034;SDS011;37062;52.546;13.230;2024-01-11T03:24:14;13.87;;;7.30;;
51034;SDS011;37062;52.546;13.230;2024-01-11T03:26:42;16.97;;;6.90;;
51034;SDS011;37062;52.546;13.230;2024-01-11T03:29:10;15.80;;;7.23;;
51034;SDS011;37062;52.546;13.230;2024-01-11T03:31:40;15.03;;;6.97;;
51034;SDS011;37062;52.546;13.230;2024-01-11T03:34:11;12.37;;;6.87;;
51034;SDS011;37062;52.546;13.230;2024-01-11T03:36:40;11.67;;;5.87;;
51034;SDS011;37062;52.546;13.230;2024-01-11T03:39:09;13.10;;;6.97;;
51034;SDS011;37062;52.546;13.230;2024-01-11T03:41:37;12.40;;;5.57;;
51034;SDS011;37062;52.546;13.230;2024-01-11T03:44:10;15.33;;;7.33;;
51034;SDS011;37062;52.546;13.230;2024-01-11T03:46:40;20.07;;;7.27;;
51034;SDS011;37062;52.546;13.230;2024-01-11T03:49:09;14.87;;;7.07;;
51034;SDS011;37062;52.546;13.230;2024-01-11T03:51:37;14.70;;;6.63;;
51034;SDS011;37062;52.546;13.230;2024-01-11T03:54:06;12.83;;;6.10;;
51034;SDS011;37062;52.546;13.230;2024-01-11T03:56:37;11.47;;;5.70;;
51034;SDS011;37062;52.546;13.230;2024-01-11T03:59:07;11.57;;;5.97;;
51034;SDS011;37062;52.546;13.230;2024-01-11T04:01:38;14.70;;;6.17;;
51034;SDS011;37062;52.546;13.230;2024-01-11T04:04:13;11.43;;;5.70;;
51034;SDS011;37062;52.546;13.230;2024-01-11T04:06:41;15.07;;;6.50;;
51034;SDS011;37062;52.546;13.230;2024-01-11T04:09:10;10.03;;;5.57;;
51034;SDS011;37062;52.546;13.230;2024-01-11T04:11:38;14.87;;;5.97;;
51034;SDS011;37062;52.546;13.230;2024-01-11T04:14:07;11.07;;;5.70;;
51034;SDS011;37062;52.546;13.230;2024-01-11T04:16:39;10.20;;;5.93;;
51034;SDS011;37062;52.546;13.230;2024-01-11T04:19:09;15.70;;;6.37;;
51034;SDS011;37062;52.546;13.230;2024-01-11T04:21:40;17.27;;;7.17;;
51034;SDS011;37062;52.546;13.230;2024-01-11T04:24:08;18.93;;;6.83;;
51034;SDS011;37062;52.546;13.230;2024-01-11T04:26:39;11.87;;;6.23;;
51034;SDS011;37062;52.546;13.230;2024-01-11T04:29:08;14.33;;;6.83;;
51034;SDS011;37062;52.546;13.230;2024-01-11T04:31:36;15.07;;;6.27;;
51034;SDS011;37062;52.546;13.230;2024-01-11T04:34:04;16.73;;;6.97;;
51034;SDS011;37062;52.546;13.230;2024-01-11T04:36:36;15.53;;;6.57;;
51034;SDS011;37062;52.546;13.230;2024-01-11T04:39:05;15.03;;;7.23;;
51034;SDS011;37062;52.546;13.230;2024-01-11T04:41:35;13.40;;;6.17;;
51034;SDS011;37062;52.546;13.230;2024-01-11T04:44:03;17.77;;;7.63;;
51034;SDS011;37062;52.546;13.230;2024-01-11T04:46:35;15.87;;;7.07;;
51034;SDS011;37062;52.546;13.230;2024-01-11T04:49:03;17.73;;;7.47;;
51034;SDS011;37062;52.546;13.230;2024-01-11T04:51:32;17.53;;;6.97;;
51034;SDS011;37062;52.546;13.230;2024-01-11T04:54:01;18.13;;;7.33;;
51034;SDS011;37062;52.546;13.230;2024-01-11T04:56:29;25.37;;;10.23;;
51034;SDS011;37062;52.546;13.230;2024-01-11T04:59:00;21.50;;;8.27;;
51034;SDS011;37062;52.546;13.230;2024-01-11T05:01:34;20.77;;;8.57;;
51034;SDS011;37062;52.546;13.230;2024-01-11T05:04:02;22.00;;;8.30;;
51034;SDS011;37062;52.546;13.230;2024-01-11T05:06:31;22.40;;;7.93;;
51034;SDS011;37062;52.546;13.230;2024-01-11T05:08:59;36.80;;;15.73;;
51034;SDS011;37062;52.546;13.230;2024-01-11T05:11:31;22.37;;;9.60;;
51034;SDS011;37062;52.546;13.230;2024-01-11T05:14:00;16.13;;;7.13;;
51034;SDS011;37062;52.546;13.230;2024-01-11T05:16:28;16.20;;;7.63;;
51034;SDS011;37062;52.546;13.230;2024-01-11T05:18:57;20.27;;;8.00;;
51034;SDS011;37062;52.546;13.230;2024-01-11T05:21:25;17.83;;;7.73;;
51034;SDS011;37062;52.546;13.230;2024-01-11T05:23:54;19.07;;;8.00;;
51034;SDS011;37062;52.546;13.230;2024-01-11T05:26:24;18.70;;;7.90;;
51034;SDS011;37062;52.546;13.230;2024-01-11T05:28:53;22.30;;;8.43;;
51034;SDS011;37062;52.546;13.230;2024-01-11T05:31:21;16.80;;;8.23;;
51034;SDS011;37062;52.546;13.230;2024-01-11T05:33:50;20.80;;;8.10;;
51034;SDS011;37062;52.546;13.230;2024-01-11T05:36:18;15.77;;;7.50;;
51034;SDS011;37062;52.546;13.230;2024-01-11T05:38:48;16.40;;;7.90;;
51034;SDS011;37062;52.546;13.230;2024-01-11T05:41:16;18.17;;;7.80;;
51034;SDS011;37062;52.546;13.230;2024-01-11T05:43:46;17.13;;;7.13;;
51034;SDS011;37062;52.546;13.230;2024-01-11T05:46:14;15.90;;;7.77;;
51034;SDS011;37062;52.546;13.230;2024-01-11T05:48:44;19.30;;;8.30;;
51034;SDS011;37062;52.546;13.230;2024-01-11T05:51:13;19.07;;;8.73;;
51034;SDS011;37062;52.546;13.230;2024-01-11T05:53:41;19.70;;;8.90;;
51034;SDS011;37062;52.546;13.230;2024-01-11T05:56:09;19.10;;;8.33;;
51034;SDS011;37062;52.546;13.230;2024-01-11T05:58:39;16.87;;;7.97;;
51034;SDS011;37062;52.546;13.230;2024-01-11T06:01:09;18.57;;;8.43;;
51034;SDS011;37062;52.546;13.230;2024-01-11T06:03:38;21.67;;;8.97;;
51034;SDS011;37062;52.546;13.230;2024-01-11T06:06:06;16.97;;;7.83;;
51034;SDS011;37062;52.546;13.230;2024-01-11T06:08:35;19.93;;;8.07;;
51034;SDS011;37062;52.546;13.230;2024-01-11T06:11:04;19.20;;;8.50;;
51034;SDS011;37062;52.546;13.230;2024-01-11T06:13:34;21.70;;;9.73;;
51034;SDS011;37062;52.546;13.230;2024-01-11T06:16:03;21.60;;;9.27;;
51034;SDS011;37062;52.546;13.230;2024-01-11T06:18:37;24.90;;;10.30;;
51034;SDS011;37062;52.546;13.230;2024-01-11T06:21:06;25.87;;;9.97;;
51034;SDS011;37062;52.546;13.230;2024-01-11T06:23:34;22.87;;;9.70;;
51034;SDS011;37062;52.546;13.230;2024-01-11T06:26:02;25.13;;;10.33;;
51034;SDS011;37062;52.546;13.230;2024-01-11T06:28:31;18.87;;;9.40;;
51034;SDS011;37062;52.546;13.230;2024-01-11T06:31:02;23.27;;;9.80;;
51034;SDS011;37062;52.546;13.230;2024-01-11T06:33:31;24.63;;;10.13;;
51034;SDS011;37062;52.546;13.230;2024-01-11T06:36:06;23.10;;;9.07;;
51034;SDS011;37062;52.546;13.230;2024-01-11T06:38:37;26.50;;;10.60;;
51034;SDS011;37062;52.546;13.230;2024-01-11T06:41:06;20.80;;;10.23;;
51034;SDS011;37062;52.546;13.230;2024-01-11T06:43:34;25.70;;;10.00;;
51034;SDS011;37062;52.546;13.230;2024-01-11T06:46:03;26.63;;;10.37;;
51034;SDS011;37062;52.546;13.230;2024-01-11T06:48:31;25.70;;;9.67;;
51034;SDS011;37062;52.546;13.230;2024-01-11T06:51:00;27.07;;;10.53;;
51034;SDS011;37062;52.546;13.230;2024-01-11T06:53:30;22.63;;;11.07;;
51034;SDS011;37062;52.546;13.230;2024-01-11T06:55:58;31.80;;;12.10;;
51034;SDS011;37062;52.546;13.230;2024-01-11T06:58:27;28.13;;;12.97;;
51034;SDS011;37062;52.546;13.230;2024-01-11T07:00:55;25.17;;;11.40;;
51034;SDS011;37062;52.546;13.230;2024-01-11T07:03:23;28.07;;;11.33;;
51034;SDS011;37062;52.546;13.230;2024-01-11T07:05:52;23.10;;;10.77;;
51034;SDS011;37062;52.546;13.230;2024-01-11T07:08:21;23.93;;;10.83;;
51034;SDS011;37062;52.546;13.230;2024-01-11T07:10:50;27.57;;;11.23;;
51034;SDS011;37062;52.546;13.230;2024-01-11T07:13:19;26.07;;;11.27;;
51034;SDS011;37062;52.546;13.230;2024-01-11T07:15:47;27.67;;;11.43;;
51034;SDS011;37062;52.546;13.230;2024-01-11T07:18:15;25.83;;;11.87;;
51034;SDS011;37062;52.546;13.230;2024-01-11T07:20:46;25.83;;;11.07;;
51034;SDS011;37062;52.546;13.230;2024-01-11T07:23:17;22.87;;;10.63;;
51034;SDS011;37062;52.546;13.230;2024-01-11T07:25:45;21.87;;;10.23;;
51034;SDS011;37062;52.546;13.230;2024-01-11T07:28:15;22.03;;;10.57;;
51034;SDS011;37062;52.546;13.230;2024-01-11T07:30:45;22.63;;;11.30;;
51034;SDS011;37062;52.546;13.230;2024-01-11T07:33:14;28.53;;;11.80;;
51034;SDS011;37062;52.546;13.230;2024-01-11T07:35:42;26.87;;;11.50;;
51034;SDS011;37062;52.546;13.230;2024-01-11T07:38:12;27.90;;;12.63;;
51034;SDS011;37062;52.546;13.230;2024-01-11T07:40:41;25.63;;;11.97;;
51034;SDS011;37062;52.546;13.230;2024-01-11T07:43:09;26.67;;;12.43;;
51034;SDS011;37062;52.546;13.230;2024-01-11T07:45:40;26.27;;;11.60;;
51034;SDS011;37062;52.546;13.230;2024-01-11T07:48:08;27.47;;;11.27;;
51034;SDS011;37062;52.546;13.230;2024-01-11T07:50:37;25.87;;;11.30;;
51034;SDS011;37062;52.546;13.230;2024-01-11T07:53:05;26.83;;;12.10;;
51034;SDS011;37062;52.546;13.230;2024-01-11T07:55:34;22.93;;;11.27;;
51034;SDS011;37062;52.546;13.230;2024-01-11T07:58:04;26.93;;;11.97;;
51034;SDS011;37062;52.546;13.230;2024-01-11T08:00:32;29.67;;;12.37;;
51034;SDS011;37062;52.546;13.230;2024-01-11T08:03:02;28.67;;;12.60;;
51034;SDS011;37062;52.546;13.230;2024-01-11T08:05:33;29.77;;;12.23;;
51034;SDS011;37062;52.546;13.230;2024-01-11T08:08:02;28.07;;;12.37;;
51034;SDS011;37062;52.546;13.230;2024-01-11T08:10:57;28.83;;;12.43;;
51034;SDS011;37062;52.546;13.230;2024-01-11T08:16:53;27.20;;;12.47;;
51034;SDS011;37062;52.546;13.230;2024-01-11T08:19:23;30.30;;;14.17;;
51034;SDS011;37062;52.546;13.230;2024-01-11T08:21:55;30.93;;;13.83;;
51034;SDS011;37062;52.546;13.230;2024-01-11T08:24:23;33.03;;;15.20;;
51034;SDS011;37062;52.546;13.230;2024-01-11T08:26:52;31.13;;;13.90;;
51034;SDS011;37062;52.546;13.230;2024-01-11T08:29:20;32.33;;;12.90;;
51034;SDS011;37062;52.546;13.230;2024-01-11T08:31:49;24.03;;;11.17;;
51034;SDS011;37062;52.546;13.230;2024-01-11T08:34:18;27.33;;;12.33;;
51034;SDS011;37062;52.546;13.230;2024-01-11T08:36:48;30.30;;;13.97;;
51034;SDS011;37062;52.546;13.230;2024-01-11T08:39:17;28.80;;;13.03;;
51034;SDS011;37062;52.546;13.230;2024-01-11T08:41:50;30.57;;;14.20;;
51034;SDS011;37062;52.546;13.230;2024-01-11T08:44:19;33.33;;;14.10;;
51034;SDS011;37062;52.546;13.230;2024-01-11T08:46:50;34.53;;;13.47;;
51034;SDS011;37062;52.546;13.230;2024-01-11T08:49:19;29.40;;;12.27;;
51034;SDS011;37062;52.546;13.230;2024-01-11T08:51:48;29.57;;;12.67;;
51034;SDS011;37062;52.546;13.230;2024-01-11T08:54:19;27.87;;;11.73;;
51034;SDS011;37062;52.546;13.230;2024-01-11T08:56:48;30.10;;;13.10;;
51034;SDS011;37062;52.546;13.230;2024-01-11T08:59:16;25.53;;;11.67;;
51034;SDS011;37062;52.546;13.230;2024-01-11T09:01:51;31.40;;;13.57;;
51034;SDS011;37062;52.546;13.230;2024-01-11T09:04:39;30.23;;;12.57;;
51034;SDS011;37062;52.546;13.230;2024-01-11T09:07:09;34.27;;;15.33;;
51034;SDS011;37062;52.546;13.230;2024-01-11T09:09:40;31.07;;;14.30;;
51034;SDS011;37062;52.546;13.230;2024-01-11T09:12:19;32.63;;;14.30;;
51034;SDS011;37062;52.546;13.230;2024-01-11T09:14:48;42.37;;;17.37;;
51034;SDS011;37062;52.546;13.230;2024-01-11T09:17:19;32.07;;;14.73;;
51034;SDS011;37062;52.546;13.230;2024-01-11T09:19:52;69.33;;;26.63;;
51034;SDS011;37062;52.546;13.230;2024-01-11T09:22:22;34.33;;;14.57;;
51034;SDS011;37062;52.546;13.230;2024-01-11T09:24:52;31.50;;;14.77;;
51034;SDS011;37062;52.546;13.230;2024-01-11T09:27:21;28.83;;;13.33;;
51034;SDS011;37062;52.546;13.230;2024-01-11T09:29:52;26.93;;;12.77;;
51034;SDS011;37062;52.546;13.230;2024-01-11T09:32:23;30.33;;;13.40;;
51034;SDS011;37062;52.546;13.230;2024-01-11T09:34:53;27.63;;;12.70;;
51034;SDS011;37062;52.546;13.230;2024-01-11T09:37:28;25.13;;;12.70;;
51034;SDS011;37062;52.546;13.230;2024-01-11T09:39:59;30.03;;;13.17;;
51034;SDS011;37062;52.546;13.230;2024-01-11T09:42:34;34.27;;;16.33;;
51034;SDS011;37062;52.546;13.230;2024-01-11T09:45:02;27.03;;;13.60;;
51034;SDS011;37062;52.546;13.230;2024-01-11T09:47:36;28.13;;;14.43;;
51034;SDS011;37062;52.546;13.230;2024-01-11T09:50:07;28.57;;;13.27;;
51034;SDS011;37062;52.546;13.230;2024-01-11T09:52:46;29.37;;;14.93;;
51034;SDS011;37062;52.546;13.230;2024-01-11T09:55:15;30.43;;;13.67;;
51034;SDS011;37062;52.546;13.230;2024-01-11T09:57:44;30.57;;;14.77;;
51034;SDS011;37062;52.546;13.230;2024-01-11T10:00:24;31.50;;;14.40;;
51034;SDS011;37062;52.546;13.230;2024-01-11T10:02:53;33.00;;;14.40;;
51034;SDS011;37062;52.546;13.230;2024-01-11T10:05:22;33.40;;;14.93;;
51034;SDS011;37062;52.546;13.230;2024-01-11T10:07:52;30.93;;;15.77;;
51034;SDS011;37062;52.546;13.230;2024-01-11T10:10:20;31.80;;;14.97;;
51034;SDS011;37062;52.546;13.230;2024-01-11T10:12:49;31.87;;;14.97;;
51034;SDS011;37062;52.546;13.230;2024-01-11T10:15:17;32.13;;;14.10;;
51034;SDS011;37062;52.546;13.230;2024-01-11T10:17:46;28.23;;;14.60;;
51034;SDS011;37062;52.546;13.230;2024-01-11T10:20:15;30.60;;;15.33;;
51034;SDS011;37062;52.546;13.230;2024-01-11T10:22:45;33.83;;;15.70;;
51034;SDS011;37062;52.546;13.230;2024-01-11T10:25:16;35.23;;;16.87;;
51034;SDS011;37062;52.546;13.230;2024-01-11T10:27:45;32.97;;;14.67;;
51034;SDS011;37062;52.546;13.230;2024-01-11T10:30:14;35.53;;;16.17;;
51034;SDS011;37062;52.546;13.230;2024-01-11T10:32:44;32.77;;;16.00;;
51034;SDS011;37062;52.546;13.230;2024-01-11T10:35:13;29.70;;;15.33;;
51034;SDS011;37062;52.546;13.230;2024-01-11T10:37:44;30.27;;;15.70;;
51034;SDS011;37062;52.546;13.230;2024-01-11T10:40:17;39.30;;;17.23;;
51034;SDS011;37062;52.546;13.230;2024-01-11T10:42:53;32.33;;;14.47;;
51034;SDS011;37062;52.546;13.230;2024-01-11T10:45:26;33.53;;;15.70;;
51034;SDS011;37062;52.546;13.230;2024-01-11T10:47:57;32.80;;;14.90;;
51034;SDS011;37062;52.546;13.230;2024-01-11T10:50:33;28.43;;;13.30;;
51034;SDS011;37062;52.546;13.230;2024-01-11T10:53:12;31.83;;;14.73;;
51034;SDS011;37062;52.546;13.230;2024-01-11T10:55:58;28.83;;;13.80;;
51034;SDS011;37062;52.546;13.230;2024-01-11T10:58:28;32.07;;;14.13;;
51034;SDS011;37062;52.546;13.230;2024-01-11T11:00:57;30.00;;;14.17;;
51034;SDS011;37062;52.546;13.230;2024-01-11T11:03:28;32.07;;;14.63;;
51034;SDS011;37062;52.546;13.230;2024-01-11T11:05:59;28.53;;;13.70;;
51034;SDS011;37062;52.546;13.230;2024-01-11T11:08:29;28.97;;;14.03;;
51034;SDS011;37062;52.546;13.230;2024-01-11T11:10:59;25.83;;;12.87;;
51034;SDS011;37062;52.546;13.230;2024-01-11T11:13:32;26.60;;;13.60;;
51034;SDS011;37062;52.546;13.230;2024-01-11T11:16:03;24.47;;;13.20;;
51034;SDS011;37062;52.546;13.230;2024-01-11T11:18:40;25.13;;;12.70;;
51034;SDS011;37062;52.546;13.230;2024-01-11T11:21:10;23.20;;;13.20;;
51034;SDS011;37062;52.546;13.230;2024-01-11T11:23:38;23.90;;;13.73;;
51034;SDS011;37062;52.546;13.230;2024-01-11T11:26:08;22.90;;;12.97;;
51034;SDS011;37062;52.546;13.230;2024-01-11T11:28:43;22.07;;;13.27;;
51034;SDS011;37062;52.546;13.230;2024-01-11T11:31:11;25.13;;;14.53;;
51034;SDS011;37062;52.546;13.230;2024-01-11T11:33:40;22.37;;;13.53;;
51034;SDS011;37062;52.546;13.230;2024-01-11T11:36:11;23.70;;;13.27;;
51034;SDS011;37062;52.546;13.230;2024-01-11T11:38:41;25.60;;;13.60;;
51034;SDS011;37062;52.546;13.230;2024-01-11T11:41:11;23.10;;;12.90;;
51034;SDS011;37062;52.546;13.230;2024-01-11T11:43:39;24.40;;;14.10;;
51034;SDS011;37062;52.546;13.230;2024-01-11T11:46:07;24.23;;;13.73;;
51034;SDS011;37062;52.546;13.230;2024-01-11T11:48:48;22.07;;;13.17;;
51034;SDS011;37062;52.546;13.230;2024-01-11T11:51:21;25.07;;;13.33;;
51034;SDS011;37062;52.546;13.230;2024-01-11T11:53:54;21.47;;;13.10;;
51034;SDS011;37062;52.546;13.230;2024-01-11T11:56:24;23.40;;;13.70;;
51034;SDS011;37062;52.546;13.230;2024-01-11T11:58:52;23.70;;;13.20;;
51034;SDS011;37062;52.546;13.230;2024-01-11T12:01:22;23.47;;;13.53;;
51034;SDS011;37062;52.546;13.230;2024-01-11T12:03:50;26.60;;;15.73;;
51034;SDS011;37062;52.546;13.230;2024-01-11T12:06:21;22.57;;;13.23;;
51034;SDS011;37062;52.546;13.230;2024-01-11T12:08:52;24.30;;;14.07;;
51034;SDS011;37062;52.546;13.230;2024-01-11T12:11:25;21.63;;;12.90;;
51034;SDS011;37062;52.546;13.230;2024-01-11T12:13:53;27.20;;;15.20;;
51034;SDS011;37062;52.546;13.230;2024-01-11T12:16:24;26.20;;;14.17;;
51034;SDS011;37062;52.546;13.230;2024-01-11T12:18:52;25.47;;;14.50;;
51034;SDS011;37062;52.546;13.230;2024-01-11T12:21:21;24.00;;;14.13;;
51034;SDS011;37062;52.546;13.230;2024-01-11T12:23:49;26.90;;;15.53;;
51034;SDS011;37062;52.546;13.230;2024-01-11T12:26:18;27.40;;;16.30;;
51034;SDS011;37062;52.546;13.230;2024-01-11T12:28:51;23.47;;;14.13;;
51034;SDS011;37062;52.546;13.230;2024-01-11T12:31:20;24.73;;;14.30;;
51034;SDS011;37062;52.546;13.230;2024-01-11T12:33:49;22.70;;;12.70;;
51034;SDS011;37062;52.546;13.230;2024-01-11T12:36:18;23.27;;;14.10;;
51034;SDS011;37062;52.546;13.230;2024-01-11T12:38:47;23.47;;;14.60;;
51034;SDS011;37062;52.546;13.230;2024-01-11T12:41:19;28.17;;;15.57;;
51034;SDS011;37062;52.546;13.230;2024-01-11T12:43:51;25.27;;;15.07;;
51034;SDS011;37062;52.546;13.230;2024-01-11T12:46:20;23.23;;;13.43;;
51034;SDS011;37062;52.546;13.230;2024-01-11T12:48:49;28.10;;;15.50;;
51034;SDS011;37062;52.546;13.230;2024-01-11T12:51:19;24.37;;;14.07;;
51034;SDS011;37062;52.546;13.230;2024-01-11T12:53:50;23.20;;;13.77;;
51034;SDS011;37062;52.546;13.230;2024-01-11T12:56:19;22.40;;;13.27;;
51034;SDS011;37062;52.546;13.230;2024-01-11T12:58:49;23.87;;;13.73;;
51034;SDS011;37062;52.546;13.230;2024-01-11T13:01:32;22.67;;;13.03;;
51034;SDS011;37062;52.546;13.230;2024-01-11T13:04:01;21.10;;;12.40;;
51034;SDS011;37062;52.546;13.230;2024-01-11T13:06:33;22.37;;;12.47;;
51034;SDS011;37062;52.546;13.230;2024-01-11T13:09:02;20.97;;;12.27;;
51034;SDS011;37062;52.546;13.230;2024-01-11T13:11:31;20.47;;;12.43;;
51034;SDS011;37062;52.546;13.230;2024-01-11T13:14:00;19.23;;;11.63;;
51034;SDS011;37062;52.546;13.230;2024-01-11T13:16:33;18.10;;;11.17;;
51034;SDS011;37062;52.546;13.230;2024-01-11T13:19:01;17.47;;;10.90;;
51034;SDS011;37062;52.546;13.230;2024-01-11T13:21:45;19.20;;;11.00;;
51034;SDS011;37062;52.546;13.230;2024-01-11T13:24:13;17.93;;;10.83;;
51034;SDS011;37062;52.546;13.230;2024-01-11T13:26:42;17.43;;;10.77;;
51034;SDS011;37062;52.546;13.230;2024-01-11T13:29:11;19.63;;;10.20;;
51034;SDS011;37062;52.546;13.230;2024-01-11T13:31:40;17.80;;;10.93;;
51034;SDS011;37062;52.546;13.230;2024-01-11T13:34:08;17.70;;;11.17;;
51034;SDS011;37062;52.546;13.230;2024-01-11T13:36:36;17.23;;;10.50;;
51034;SDS011;37062;52.546;13.230;2024-01-11T13:39:04;19.37;;;9.97;;
51034;SDS011;37062;52.546;13.230;2024-01-11T13:41:34;17.83;;;11.17;;
51034;SDS011;37062;52.546;13.230;2024-01-11T13:44:03;18.60;;;11.40;;
51034;SDS011;37062;52.546;13.230;2024-01-11T13:46:34;18.00;;;11.23;;
51034;SDS011;37062;52.546;13.230;2024-01-11T13:49:02;18.73;;;10.97;;
51034;SDS011;37062;52.546;13.230;2024-01-11T13:51:31;20.13;;;11.73;;
51034;SDS011;37062;52.546;13.230;2024-01-11T13:54:11;17.97;;;11.57;;
51034;SDS011;37062;52.546;13.230;2024-01-11T13:56:40;19.13;;;10.97;;
51034;SDS011;37062;52.546;13.230;2024-01-11T13:59:08;17.40;;;10.90;;
51034;SDS011;37062;52.546;13.230;2024-01-11T14:01:38;18.03;;;11.23;;
51034;SDS011;37062;52.546;13.230;2024-01-11T14:04:06;16.63;;;10.83;;
51034;SDS011;37062;52.546;13.230;2024-01-11T14:06:34;17.90;;;10.93;;
51034;SDS011;37062;52.546;13.230;2024-01-11T14:09:03;20.33;;;11.47;;
51034;SDS011;37062;52.546;13.230;2024-01-11T14:11:35;16.47;;;9.83;;
51034;SDS011;37062;52.546;13.230;2024-01-11T14:14:04;17.07;;;9.43;;
51034;SDS011;37062;52.546;13.230;2024-01-11T14:16:32;17.40;;;10.33;;
51034;SDS011;37062;52.546;13.230;2024-01-11T14:19:01;16.80;;;10.00;;
51034;SDS011;37062;52.546;13.230;2024-01-11T14:21:30;19.10;;;10.63;;
51034;SDS011;37062;52.546;13.230;2024-01-11T14:23:58;15.73;;;10.27;;
51034;SDS011;37062;52.546;13.230;2024-01-11T14:26:26;17.17;;;9.53;;
51034;SDS011;37062;52.546;13.230;2024-01-11T14:28:55;18.07;;;11.37;;
51034;SDS011;37062;52.546;13.230;2024-01-11T14:31:23;17.10;;;10.90;;
51034;SDS011;37062;52.546;13.230;2024-01-11T14:33:51;17.60;;;10.60;;